createdAt,value
2022-10-11T00:01:03.435Z,8.79
2022-10-11T00:03:40.374Z,8.90
2022-10-11T00:06:09.754Z,8.99
2022-10-11T00:08:37.427Z,9.05
2022-10-11T00:11:08.527Z,9.10
2022-10-11T00:13:37.625Z,9.13
2022-10-11T00:16:12.197Z,9.11
2022-10-11T00:18:41.621Z,9.06
2022-10-11T00:21:13.539Z,8.96
2022-10-11T00:23:43.169Z,8.85
2022-10-11T00:26:12.098Z,8.77
2022-10-11T00:28:41.387Z,8.70
2022-10-11T00:31:14.823Z,8.66
2022-10-11T00:33:42.673Z,8.61
2022-10-11T00:36:14.788Z,8.55
2022-10-11T00:38:45.025Z,8.50
2022-10-11T00:41:14.531Z,8.43
2022-10-11T00:43:42.296Z,8.35
2022-10-11T00:46:16.050Z,8.28
2022-10-11T00:48:54.744Z,8.23
2022-10-11T00:51:42.344Z,8.21
2022-10-11T00:54:15.695Z,8.22
2022-10-11T00:56:49.837Z,8.24
2022-10-11T00:59:24.925Z,8.24
2022-10-11T01:01:54.002Z,8.24
2022-10-11T01:04:22.949Z,8.23
2022-10-11T01:06:52.901Z,8.23
2022-10-11T01:09:23.164Z,8.22
2022-10-11T01:11:54.087Z,8.21
2022-10-11T01:14:43.945Z,8.21
2022-10-11T01:17:41.483Z,8.22
2022-10-11T01:20:17.928Z,8.24
2022-10-11T01:23:26.873Z,8.26
2022-10-11T01:26:03.712Z,8.31
2022-10-11T01:28:50.472Z,8.36
2022-10-11T01:31:36.156Z,8.42
2022-10-11T01:34:23.736Z,8.48
2022-10-11T01:37:05.734Z,8.57
2022-10-11T01:39:43.217Z,8.64
2022-10-11T01:42:13.854Z,8.70
2022-10-11T01:44:46.489Z,8.77
2022-10-11T01:47:14.238Z,8.84
2022-10-11T01:49:44.115Z,8.89
2022-10-11T01:52:12.979Z,8.94
2022-10-11T01:55:09.487Z,8.98
2022-10-11T01:58:06.675Z,9.02
2022-10-11T02:01:05.753Z,9.07
2022-10-11T02:03:56.962Z,9.13
2022-10-11T02:06:33.875Z,9.18
2022-10-11T02:09:30.438Z,9.22
2022-10-11T02:12:08.404Z,9.27
2022-10-11T02:14:42.017Z,9.32
2022-10-11T02:17:16.939Z,9.35
2022-10-11T02:19:50.650Z,9.36
2022-10-11T02:22:34.923Z,9.37
2022-10-11T02:25:09.382Z,9.36
2022-10-11T02:27:40.872Z,9.38
2022-10-11T02:30:12.295Z,9.39
2022-10-11T02:32:44.663Z,9.40
2022-10-11T02:35:13.862Z,9.39
2022-10-11T02:38:02.651Z,9.39
2022-10-11T02:40:38.081Z,9.39
2022-10-11T02:43:31.648Z,9.40
2022-10-11T02:46:03.687Z,9.39
2022-10-11T02:48:36.629Z,9.39
2022-10-11T02:51:05.797Z,9.38
2022-10-11T02:53:34.419Z,9.39
2022-10-11T02:56:02.219Z,9.39
2022-10-11T02:58:31.109Z,9.40
2022-10-11T03:00:58.761Z,9.40
2022-10-11T03:03:28.650Z,9.41
2022-10-11T03:06:03.074Z,9.43
2022-10-11T03:08:33.323Z,9.44
2022-10-11T03:11:01.014Z,9.45
2022-10-11T03:13:28.646Z,9.47
2022-10-11T03:16:03.307Z,9.47
2022-10-11T03:18:33.821Z,9.48
2022-10-11T03:21:02.810Z,9.49
2022-10-11T03:23:30.542Z,9.50
2022-10-11T03:25:58.260Z,9.51
2022-10-11T03:28:25.998Z,9.50
2022-10-11T03:30:53.749Z,9.51
2022-10-11T03:33:22.618Z,9.51
2022-10-11T03:35:50.666Z,9.51
2022-10-11T03:38:21.945Z,9.51
2022-10-11T03:40:49.987Z,9.51
2022-10-11T03:43:18.306Z,9.52
2022-10-11T03:45:46.064Z,9.52
2022-10-11T03:48:13.790Z,9.52
2022-10-11T03:50:42.466Z,9.52
2022-10-11T03:53:11.434Z,9.54
2022-10-11T03:55:40.748Z,9.54
2022-10-11T03:58:08.470Z,9.52
2022-10-11T04:00:37.167Z,9.52
2022-10-11T04:03:07.377Z,9.53
2022-10-11T04:05:34.973Z,9.52
2022-10-11T04:08:05.429Z,9.51
2022-10-11T04:10:37.091Z,9.50
2022-10-11T04:13:05.995Z,9.49
2022-10-11T04:15:34.237Z,9.47
2022-10-11T04:18:01.850Z,9.46
2022-10-11T04:20:29.528Z,9.46
2022-10-11T04:22:57.171Z,9.44
2022-10-11T04:25:26.024Z,9.43
2022-10-11T04:27:53.767Z,9.42
2022-10-11T04:30:22.842Z,9.42
2022-10-11T04:32:51.977Z,9.42
2022-10-11T04:35:19.695Z,9.42
2022-10-11T04:37:47.379Z,9.42
2022-10-11T04:40:15.062Z,9.42
2022-10-11T04:42:42.777Z,9.44
2022-10-11T04:45:11.292Z,9.45
2022-10-11T04:47:41.525Z,9.47
2022-10-11T04:50:09.316Z,9.49
2022-10-11T04:52:37.062Z,9.52
2022-10-11T04:55:05.184Z,9.55
2022-10-11T04:57:33.808Z,9.58
2022-10-11T05:00:01.546Z,9.62
2022-10-11T05:02:31.176Z,9.67
2022-10-11T05:04:58.917Z,9.72
2022-10-11T05:07:26.604Z,9.77
2022-10-11T05:09:54.662Z,9.82
2022-10-11T05:12:22.461Z,9.88
2022-10-11T05:14:50.107Z,9.93
2022-10-11T05:17:17.787Z,9.98
2022-10-11T05:19:45.473Z,10.04
2022-10-11T05:22:13.237Z,10.10
2022-10-11T05:24:40.916Z,10.14
2022-10-11T05:27:08.819Z,10.20
2022-10-11T05:29:36.588Z,10.25
2022-10-11T05:32:04.584Z,10.29
2022-10-11T05:34:32.498Z,10.33
2022-10-11T05:37:00.134Z,10.38
2022-10-11T05:39:28.668Z,10.42
2022-10-11T05:41:57.488Z,10.48
2022-10-11T05:44:25.353Z,10.55
2022-10-11T05:46:53.019Z,10.60
2022-10-11T05:49:20.715Z,10.65
2022-10-11T05:51:48.411Z,10.69
2022-10-11T05:54:16.058Z,10.72
2022-10-11T05:56:43.804Z,10.77
2022-10-11T05:59:11.521Z,10.81
2022-10-11T06:01:39.277Z,10.85
2022-10-11T06:04:09.445Z,10.90
2022-10-11T06:06:37.169Z,10.94
2022-10-11T06:09:04.782Z,10.99
2022-10-11T06:11:33.028Z,11.07
2022-10-11T06:14:01.936Z,11.15
2022-10-11T06:16:29.680Z,11.22
2022-10-11T06:18:58.531Z,11.28
2022-10-11T06:21:26.368Z,11.33
2022-10-11T06:24:00.854Z,11.38
2022-10-11T06:26:33.042Z,11.41
2022-10-11T06:29:01.977Z,11.44
2022-10-11T06:31:29.682Z,11.46
2022-10-11T06:34:00.516Z,11.51
2022-10-11T06:36:29.945Z,11.57
2022-10-11T06:38:57.682Z,11.66
2022-10-11T06:41:29.799Z,11.73
2022-10-11T06:43:58.722Z,11.80
2022-10-11T06:46:30.424Z,11.87
2022-10-11T06:48:59.299Z,11.94
2022-10-11T06:51:31.075Z,12.01
2022-10-11T06:54:01.911Z,12.06
2022-10-11T06:56:31.843Z,12.12
2022-10-11T06:59:01.169Z,12.16
2022-10-11T07:01:28.918Z,12.19
2022-10-11T07:04:01.258Z,12.24
2022-10-11T07:06:31.580Z,12.27
2022-10-11T07:09:01.254Z,12.30
2022-10-11T07:11:29.165Z,12.32
2022-10-11T07:14:01.583Z,12.38
2022-10-11T07:16:30.706Z,12.45
2022-10-11T07:19:01.105Z,12.51
2022-10-11T07:21:32.324Z,12.58
2022-10-11T07:24:01.795Z,12.63
2022-10-11T07:26:37.472Z,12.70
2022-10-11T07:29:10.835Z,12.77
2022-10-11T07:31:42.448Z,12.86
2022-10-11T07:34:12.002Z,12.99
2022-10-11T07:36:41.095Z,13.12
2022-10-11T07:39:09.900Z,13.24
2022-10-11T07:41:44.685Z,13.34
2022-10-11T07:44:17.154Z,13.46
2022-10-11T07:46:44.798Z,13.58
2022-10-11T07:49:12.537Z,13.72
2022-10-11T07:51:40.237Z,13.85
2022-10-11T07:54:09.949Z,13.93
2022-10-11T07:56:38.890Z,14.01
2022-10-11T07:59:06.730Z,14.12
2022-10-11T08:01:34.889Z,14.23
2022-10-11T08:04:03.310Z,14.37
2022-10-11T08:06:33.544Z,14.50
2022-10-11T08:09:01.840Z,14.62
2022-10-11T08:11:38.576Z,14.73
2022-10-11T08:14:12.496Z,14.88
2022-10-11T08:16:41.815Z,15.06
2022-10-11T08:19:10.393Z,15.21
2022-10-11T08:21:38.038Z,15.29
2022-10-11T08:24:07.725Z,15.25
2022-10-11T08:26:35.600Z,15.20
2022-10-11T08:29:06.243Z,15.15
2022-10-11T08:31:35.806Z,15.13
2022-10-11T08:34:04.801Z,15.07
2022-10-11T08:36:33.674Z,14.97
2022-10-11T08:39:03.299Z,14.93
2022-10-11T08:41:55.262Z,14.92
2022-10-11T08:47:37.875Z,14.92
2022-10-11T08:50:16.700Z,14.98
2022-10-11T08:52:56.218Z,15.00
2022-10-11T08:55:47.875Z,15.03
2022-10-11T08:58:29.921Z,15.03
2022-10-11T09:00:59.398Z,15.03
2022-10-11T09:03:40.482Z,15.07
2022-10-11T09:06:23.595Z,15.13
2022-10-11T09:09:26.509Z,15.17
2022-10-11T09:12:06.263Z,15.20
2022-10-11T09:14:40.497Z,15.20
2022-10-11T09:17:20.472Z,15.17
2022-10-11T09:20:13.305Z,15.14
2022-10-11T09:23:02.702Z,15.02
2022-10-11T09:25:34.971Z,14.93
2022-10-11T09:28:13.477Z,14.88
2022-10-11T09:30:53.754Z,14.82
2022-10-11T09:33:33.941Z,14.80
2022-10-11T09:36:12.784Z,14.78
2022-10-11T09:39:06.770Z,14.73
2022-10-11T09:41:48.934Z,14.65
2022-10-11T09:44:28.569Z,14.55
2022-10-11T09:46:58.876Z,14.44
2022-10-11T09:49:38.746Z,14.33
2022-10-11T09:52:17.561Z,14.28
2022-10-11T09:54:55.390Z,14.26
2022-10-11T09:57:27.438Z,14.23
2022-10-11T10:00:21.761Z,14.20
2022-10-11T10:02:57.255Z,14.15
2022-10-11T10:05:36.816Z,14.09
2022-10-11T10:08:08.485Z,14.00
2022-10-11T10:10:41.605Z,13.93
2022-10-11T10:13:24.314Z,13.87
2022-10-11T10:16:01.102Z,13.82
2022-10-11T10:18:52.787Z,13.81
2022-10-11T10:21:29.530Z,13.87
2022-10-11T10:24:04.325Z,13.95
2022-10-11T10:26:34.240Z,14.08
2022-10-11T10:29:08.206Z,14.20
2022-10-11T10:32:01.851Z,14.26
2022-10-11T10:34:37.767Z,14.31
2022-10-11T10:37:08.491Z,14.39
2022-10-11T10:39:55.047Z,14.48
2022-10-11T10:42:24.570Z,14.58
2022-10-11T10:44:59.636Z,14.67
2022-10-11T10:47:57.015Z,14.82
2022-10-11T10:50:41.119Z,15.12
2022-10-11T10:53:20.756Z,15.39
2022-10-11T10:56:01.081Z,15.59
2022-10-11T10:58:45.682Z,15.71
2022-10-11T11:01:28.762Z,15.72
2022-10-11T11:03:59.703Z,15.71
2022-10-11T11:07:01.307Z,15.72
2022-10-11T11:09:50.357Z,15.75
2022-10-11T11:12:42.494Z,15.82
2022-10-11T11:15:29.188Z,15.91
2022-10-11T11:18:26.242Z,15.99
2022-10-11T11:21:26.784Z,16.00
2022-10-11T11:24:18.647Z,16.01
2022-10-11T11:27:11.447Z,16.00
2022-10-11T11:29:54.540Z,16.04
2022-10-11T11:32:37.240Z,16.14
2022-10-11T11:35:18.068Z,16.15
2022-10-11T11:37:55.551Z,16.13
2022-10-11T11:40:38.343Z,16.10
2022-10-11T11:43:24.202Z,16.13
2022-10-11T11:46:01.223Z,16.14
2022-10-11T11:48:29.050Z,16.15
2022-10-11T11:51:05.323Z,16.14
2022-10-11T11:53:43.696Z,16.10
2022-10-11T11:56:50.397Z,16.07
2022-10-11T11:59:29.830Z,16.11
2022-10-11T12:02:12.992Z,16.17
2022-10-11T12:04:49.408Z,16.26
2022-10-11T12:07:21.208Z,16.33
2022-10-11T12:10:13.951Z,16.39
2022-10-11T12:12:43.325Z,16.44
2022-10-11T12:15:26.253Z,16.43
2022-10-11T12:17:58.116Z,16.38
2022-10-11T12:20:30.005Z,16.36
2022-10-11T12:23:06.638Z,16.32
2022-10-11T12:25:39.230Z,16.33
2022-10-11T12:28:40.533Z,16.41
2022-10-11T12:31:29.436Z,16.54
2022-10-11T12:34:02.018Z,16.62
2022-10-11T12:36:29.780Z,16.76
2022-10-11T12:39:45.654Z,16.89
2022-10-11T12:42:25.064Z,17.04
2022-10-11T12:45:10.887Z,17.05
2022-10-11T12:47:48.801Z,16.99
2022-10-11T12:50:41.376Z,16.89
2022-10-11T12:53:33.500Z,16.79
2022-10-11T12:56:27.449Z,16.68
2022-10-11T12:59:06.394Z,16.61
2022-10-11T13:01:47.698Z,16.56
2022-10-11T13:04:21.624Z,16.54
2022-10-11T13:06:56.913Z,16.50
2022-10-11T13:09:29.456Z,16.44
2022-10-11T13:12:14.461Z,16.37
2022-10-11T13:14:55.425Z,16.34
2022-10-11T13:17:38.639Z,16.28
2022-10-11T13:20:20.050Z,16.21
2022-10-11T13:22:53.132Z,16.18
2022-10-11T13:25:27.994Z,16.14
2022-10-11T13:27:59.624Z,16.06
2022-10-11T13:30:31.958Z,15.97
2022-10-11T13:33:01.122Z,15.87
2022-10-11T13:35:35.221Z,15.76
2022-10-11T13:38:09.631Z,15.69
2022-10-11T13:40:38.747Z,15.66
2022-10-11T13:43:06.585Z,15.57
2022-10-11T13:45:37.094Z,15.49
2022-10-11T13:48:15.870Z,15.45
2022-10-11T13:50:52.643Z,15.42
2022-10-11T13:53:25.476Z,15.41
2022-10-11T13:55:59.999Z,15.40
2022-10-11T13:58:40.486Z,15.40
2022-10-11T14:01:20.913Z,15.40
2022-10-11T14:04:17.462Z,15.42
2022-10-11T14:06:53.040Z,15.43
2022-10-11T14:09:29.036Z,15.40
2022-10-11T14:12:26.985Z,15.37
2022-10-11T14:14:54.853Z,15.35
2022-10-11T14:17:39.285Z,15.32
2022-10-11T14:20:21.143Z,15.29
2022-10-11T14:22:54.087Z,15.28
2022-10-11T14:25:22.180Z,15.25
2022-10-11T14:27:55.184Z,15.24
2022-10-11T14:30:27.599Z,15.21
2022-10-11T14:33:01.560Z,15.19
2022-10-11T14:35:32.518Z,15.19
2022-10-11T14:38:01.545Z,15.17
2022-10-11T14:40:31.944Z,15.17
2022-10-11T14:43:00.835Z,15.16
2022-10-11T14:45:30.138Z,15.14
2022-10-11T14:47:58.843Z,15.12
2022-10-11T14:50:43.209Z,15.11
2022-10-11T14:53:11.935Z,15.11
2022-10-11T14:55:41.766Z,15.10
2022-10-11T14:58:13.656Z,15.09
2022-10-11T15:00:42.058Z,15.08
2022-10-11T15:03:09.879Z,15.08
2022-10-11T15:05:39.370Z,15.08
2022-10-11T15:08:08.492Z,15.07
2022-10-11T15:10:41.185Z,15.06
2022-10-11T15:13:10.274Z,15.06
2022-10-11T15:15:41.624Z,15.05
2022-10-11T15:18:13.623Z,15.03
2022-10-11T15:20:46.213Z,15.02
2022-10-11T15:23:15.277Z,15.00
2022-10-11T15:25:45.621Z,14.98
2022-10-11T15:28:30.113Z,14.95
2022-10-11T15:30:59.156Z,14.91
2022-10-11T15:33:28.093Z,14.86
2022-10-11T15:35:55.920Z,14.82
2022-10-11T15:38:26.144Z,14.77
2022-10-11T15:40:55.326Z,14.72
2022-10-11T15:43:25.685Z,14.66
2022-10-11T15:45:57.927Z,14.59
2022-10-11T15:48:27.900Z,14.52
2022-10-11T15:50:55.736Z,14.45
2022-10-11T15:53:30.175Z,14.37
2022-10-11T15:56:05.888Z,14.30
2022-10-11T15:58:40.378Z,14.23
2022-10-11T16:01:19.219Z,14.16
2022-10-11T16:03:50.805Z,14.10
2022-10-11T16:06:19.437Z,14.03
2022-10-11T16:08:48.034Z,13.97
2022-10-11T16:11:17.979Z,13.92
2022-10-11T16:13:45.621Z,13.85
2022-10-11T16:16:14.306Z,13.77
2022-10-11T16:18:42.039Z,13.68
2022-10-11T16:21:16.516Z,13.61
2022-10-11T16:23:44.139Z,13.54
2022-10-11T16:26:16.604Z,13.47
2022-10-11T16:28:48.728Z,13.40
2022-10-11T16:31:20.757Z,13.34
2022-10-11T16:33:50.470Z,13.29
2022-10-11T16:36:41.288Z,13.23
2022-10-11T16:39:14.812Z,13.15
2022-10-11T16:41:44.677Z,13.05
2022-10-11T16:44:20.024Z,12.96
2022-10-11T16:46:49.485Z,12.86
2022-10-11T16:49:22.626Z,12.77
2022-10-11T16:51:55.233Z,12.69
2022-10-11T16:54:23.041Z,12.60
2022-10-11T16:56:50.826Z,12.53
2022-10-11T16:59:20.011Z,12.47
2022-10-11T17:01:49.404Z,12.43
2022-10-11T17:04:17.237Z,12.38
2022-10-11T17:06:46.000Z,12.32
2022-10-11T17:09:17.205Z,12.25
2022-10-11T17:11:45.613Z,12.19
2022-10-11T17:14:14.469Z,12.13
2022-10-11T17:16:43.448Z,12.06
2022-10-11T17:19:17.467Z,12.00
2022-10-11T17:21:45.310Z,11.95
2022-10-11T17:24:13.009Z,11.88
2022-10-11T17:26:40.723Z,11.82
2022-10-11T17:29:18.977Z,11.75
2022-10-11T17:31:49.414Z,11.70
2022-10-11T17:34:18.491Z,11.65
2022-10-11T17:36:48.167Z,11.62
2022-10-11T17:39:20.953Z,11.59
2022-10-11T17:41:50.070Z,11.55
2022-10-11T17:44:19.399Z,11.50
2022-10-11T17:46:49.187Z,11.45
2022-10-11T17:49:17.941Z,11.42
2022-10-11T17:51:46.204Z,11.40
2022-10-11T17:54:15.378Z,11.37
2022-10-11T17:56:43.121Z,11.34
2022-10-11T17:59:17.798Z,11.33
2022-10-11T18:01:47.054Z,11.30
2022-10-11T18:04:19.142Z,11.29
2022-10-11T18:06:49.138Z,11.26
2022-10-11T18:09:18.866Z,11.24
2022-10-11T18:11:48.303Z,11.22
2022-10-11T18:14:17.333Z,11.21
2022-10-11T18:16:45.691Z,11.17
2022-10-11T18:19:14.987Z,11.15
2022-10-11T18:21:43.985Z,11.13
2022-10-11T18:24:16.393Z,11.11
2022-10-11T18:26:49.922Z,11.09
2022-10-11T18:29:17.495Z,11.08
2022-10-11T18:31:46.500Z,11.05
2022-10-11T18:34:19.094Z,11.04
2022-10-11T18:36:47.414Z,11.02
2022-10-11T18:39:15.457Z,10.99
2022-10-11T18:41:45.462Z,10.97
2022-10-11T18:44:15.749Z,10.94
2022-10-11T18:46:44.861Z,10.92
2022-10-11T18:49:14.779Z,10.89
2022-10-11T18:51:45.076Z,10.85
2022-10-11T18:54:18.336Z,10.83
2022-10-11T18:56:50.127Z,10.80
2022-10-11T18:59:18.485Z,10.79
2022-10-11T19:01:53.166Z,10.77
2022-10-11T19:04:22.116Z,10.75
2022-10-11T19:06:53.660Z,10.73
2022-10-11T19:09:26.176Z,10.70
2022-10-11T19:11:57.417Z,10.68
2022-10-11T19:14:30.291Z,10.65
2022-10-11T19:16:58.731Z,10.63
2022-10-11T19:19:30.683Z,10.59
2022-10-11T19:22:00.823Z,10.58
2022-10-11T19:24:31.680Z,10.55
2022-10-11T19:27:03.417Z,10.52
2022-10-11T19:29:37.523Z,10.49
2022-10-11T19:32:08.213Z,10.45
2022-10-11T19:34:37.057Z,10.41
2022-10-11T19:37:06.009Z,10.39
2022-10-11T19:39:36.196Z,10.36
2022-10-11T19:42:05.035Z,10.33
2022-10-11T19:44:38.720Z,10.31
2022-10-11T19:47:10.594Z,10.27
2022-10-11T19:49:38.296Z,10.23
2022-10-11T19:52:07.156Z,10.19
2022-10-11T19:54:35.902Z,10.17
2022-10-11T19:57:03.773Z,10.14
2022-10-11T19:59:31.462Z,10.11
2022-10-11T20:01:59.444Z,10.10
2022-10-11T20:04:51.074Z,10.08
2022-10-11T20:07:16.195Z,10.07
2022-10-11T20:09:44.035Z,10.06
2022-10-11T20:12:12.904Z,10.05
2022-10-11T20:14:40.681Z,10.04
2022-10-11T20:17:08.381Z,10.02
2022-10-11T20:19:36.084Z,10.00
2022-10-11T20:22:06.035Z,9.96
2022-10-11T20:24:35.325Z,9.94
2022-10-11T20:27:07.570Z,9.92
2022-10-11T20:29:37.495Z,9.89
2022-10-11T20:32:08.909Z,9.85
2022-10-11T20:34:40.517Z,9.82
2022-10-11T20:37:08.407Z,9.79
2022-10-11T20:39:37.190Z,9.76
2022-10-11T20:42:05.938Z,9.72
2022-10-11T20:44:33.590Z,9.67
2022-10-11T20:47:04.011Z,9.63
2022-10-11T20:49:33.110Z,9.59
2022-10-11T20:52:01.339Z,9.55
2022-10-11T20:54:31.691Z,9.51
2022-10-11T20:57:01.227Z,9.46
2022-10-11T20:59:29.016Z,9.41
2022-10-11T21:01:57.843Z,9.35
2022-10-11T21:04:26.989Z,9.31
2022-10-11T21:06:55.920Z,9.26
2022-10-11T21:09:24.202Z,9.23
2022-10-11T21:11:52.015Z,9.19
2022-10-11T21:14:19.733Z,9.17
2022-10-11T21:16:47.689Z,9.15
2022-10-11T21:19:16.867Z,9.12
2022-10-11T21:21:53.331Z,9.07
2022-10-11T21:24:22.716Z,9.02
2022-10-11T21:26:51.534Z,8.96
2022-10-11T21:29:19.312Z,8.91
2022-10-11T21:31:50.295Z,8.85
2022-10-11T21:34:18.099Z,8.81
2022-10-11T21:36:46.905Z,8.75
2022-10-11T21:39:15.854Z,8.70
2022-10-11T21:41:43.539Z,8.64
2022-10-11T21:44:11.264Z,8.58
2022-10-11T21:49:26.685Z,8.46
2022-10-11T21:51:54.433Z,8.41
2022-10-11T21:54:22.083Z,8.38
2022-10-11T21:56:49.771Z,8.35
2022-10-11T21:59:17.397Z,8.29
2022-10-11T22:01:45.167Z,8.25
2022-10-11T22:04:12.925Z,8.19
2022-10-11T22:06:40.700Z,8.15
2022-10-11T22:09:10.690Z,8.11
2022-10-11T22:11:38.476Z,8.08
2022-10-11T22:14:06.283Z,8.02
2022-10-11T22:16:34.771Z,7.89
2022-10-11T22:19:05.261Z,7.79
2022-10-11T22:21:32.962Z,7.77
2022-10-11T22:24:00.907Z,7.75
2022-10-11T22:26:31.413Z,7.71
2022-10-11T22:29:00.679Z,7.67
2022-10-11T22:31:30.580Z,7.61
2022-10-11T22:34:01.702Z,7.53
2022-10-11T22:36:30.783Z,7.46
2022-10-11T22:38:59.840Z,7.41
2022-10-11T22:41:29.501Z,7.39
2022-10-11T22:43:57.262Z,7.36
2022-10-11T22:46:25.038Z,7.31
2022-10-11T22:48:52.727Z,7.26
2022-10-11T22:51:20.442Z,7.21
2022-10-11T22:53:49.610Z,7.17
2022-10-11T22:56:17.362Z,7.12
2022-10-11T22:58:46.458Z,7.08
2022-10-11T23:01:16.598Z,7.02
2022-10-11T23:03:51.700Z,6.97
2022-10-11T23:06:20.917Z,6.91
2022-10-11T23:08:51.004Z,6.86
2022-10-11T23:11:18.659Z,6.81
2022-10-11T23:13:46.344Z,6.76
2022-10-11T23:16:14.171Z,6.71
2022-10-11T23:18:43.273Z,6.65
2022-10-11T23:21:14.155Z,6.61
2022-10-11T23:23:42.884Z,6.57
2022-10-11T23:26:15.282Z,6.53
2022-10-11T23:28:44.744Z,6.48
2022-10-11T23:31:17.520Z,6.44
2022-10-11T23:33:47.560Z,6.40
2022-10-11T23:36:24.839Z,6.35
2022-10-11T23:38:57.895Z,6.29
2022-10-11T23:41:30.032Z,6.23
2022-10-11T23:43:58.796Z,6.18
2022-10-11T23:46:27.143Z,6.13
2022-10-11T23:48:54.827Z,6.08
2022-10-11T23:51:22.617Z,6.05
2022-10-11T23:53:50.393Z,6.02
2022-10-11T23:56:18.106Z,5.99
2022-10-11T23:58:45.877Z,5.95
